Averill Park, NY

10:08 PM EDT on September 18, 2014 (GMT -0400)
Taborton Mountain | Change Station
CLOSE
Current Station
Personal Weather Station
Location: Averill Park, NY
Elevation: 1296 ft
Nearby Weather Stations

Elev 1296 ft 42.61 °N, 73.48 °W | Updated 50 seconds ago

Mostly Cloudy
Mostly Cloudy
48.4 °F
Feels Like 48 °F
N
0.9
Wind Variable Wind from NNE
Gusts 2.0 mph

Today
High -- | Low -- °F
--% Chance of Precip.
Yesterday
High -- | Low -- °F
Precip. -- in
6:37 AM 6:58 PM
Waning Crescent, 23% visible
Pressure 30.17 in
Visibility 10.0 miles
Clouds Few 2900 ft
Scattered Clouds 4500 ft
Mostly Cloudy 6000 ft
Windchill 48 °F
Dew Point 45 °F
Humidity 87%
Rainfall 0.01 in
Snow Depth Not available.
UV 0.0 out of 12
Pollen 2.90 out of 12
PM2.5 Good
Flu Activity Not available.
METAR KALB 190151Z 01008KT 10SM FEW029 SCT045 BKN060 11/06 A3016 RMK AO2 SLP214 T01060056

More Conditions Fewer Conditions

Pressure 30.17 in
Visibility 10.0 miles
Clouds Few 2900 ft
Scattered Clouds 4500 ft
Mostly Cloudy 6000 ft
Windchill 48 °F
Dew Point 45 °F
Humidity 87%
Rainfall 0.01 in
Snow Depth Not available.
UV 0.0 out of 12
Pollen 2.90 out of 12
PM2.5 Good
Flu Activity Not available.
METAR KALB 190151Z 01008KT 10SM FEW029 SCT045 BKN060 11/06 A3016 RMK AO2 SLP214 T01060056

More Conditions Fewer Conditions

10-Day Weather Forecast

Almanac

Astronomy

Sep. 18, 2014 Rise Set
Actual Time 6:37 AM EDT 6:58 PM EDT
Civil Twilight 6:08 AM EDT 7:26 PM EDT
Nautical Twilight 5:35 AM EDT 8:00 PM EDT
Astronomical Twilight 5:01 AM EDT 8:34 PM EDT
Moon 1:21 AM EDT (9/18) 3:52 PM EDT (9/18)
Length of Visible Light 13h 17m
Length of Day
12h 21m
Tomorrow will be 2m 52s shorter.
Waning Crescent, 23% of the Moon is Illuminated
Today
Waning Crescent
Sep 24
New
Oct 1
First Quarter
Oct 8
Full
Oct 15
Last Quarter

Today's Extremes

State Highs State Lows

Community

WunderPhotos

Upload Photos

1,754,537 photos uploaded!

Nearby

Air Quality

  Air Quality AQ Index Pollutant
Yesterday Good
OZONE
Yesterday Good
PM2.5
Current Good
PM2.5
Thursday Good
OZONE
Thursday Good
PM2.5
Friday Good
OZONE
Friday Good
PM2.5

Snow Depth

Station Depth Elevation
No new snow has been reported.

Earthquake Activity

City Distance Mag. Time & Date
No recent earthquake activity has been reported nearby.
Minimum magnitude displayed is 2.5.

Coastal Water Temperatures

Place Temperature
No Stations Reporting

Nearby Weather Stations